Gamle Salten — LCQT — position and weather

sailwx.info

Track history (hours):
 
Tides and Currents Weather Stations Pressure Air Temp Water Temp Dewpoint Dewpoint Depression Visibility Wind Speed Wind Dir Waves Ship Positions

Gamle Salten

Last reported at 2017-Mar-30 23:33 UTC. Time now 2017-Mar-31 00:24 UTC.
Position N 66°01' E 012°37'.

Length 48 m; draft 5 m.

Type: Passenger vessel. MMSI: 258178000.

Date/timePositionNaut miles runAvg speedWind from/ knotsBaromVisibWave heightAir tempDewpointWater temp
2017-Mar-30 23:33N 66°01' E 012°37'0 0.0
2017-Mar-30 22:33N 66°01' E 012°37'0 0.0
2017-Mar-30 21:32N 66°01' E 012°37'0 0.0
2017-Mar-30 20:32N 66°01' E 012°37'0 0.0
2017-Mar-30 19:31N 66°01' E 012°37'0 0.0
2017-Mar-30 18:33N 66°01' E 012°37'0 0.0
2017-Mar-30 17:33N 66°01' E 012°37'0 0.0
2017-Mar-30 16:32N 66°01' E 012°37'0 0.0
2017-Mar-30 15:32N 66°01' E 012°37'0 0.0
2017-Mar-30 14:31N 66°01' E 012°37'0 0.0
2017-Mar-30 13:33N 66°01' E 012°37'0 0.0
2017-Mar-30 12:33N 66°01' E 012°37'0 0.0
2017-Mar-30 11:32N 66°01' E 012°37'0 0.0
2017-Mar-30 10:33N 66°01' E 012°37'0 0.0
2017-Mar-30 09:31N 66°01' E 012°37'0 0.0
2017-Mar-30 08:33N 66°01' E 012°37'0 0.0
2017-Mar-30 07:33N 66°01' E 012°37'0 0.0
2017-Mar-30 06:32N 66°01' E 012°37'0 0.0
2017-Mar-30 05:32N 66°01' E 012°37'0 0.0
2017-Mar-30 04:31N 66°01' E 012°37'0 0.0
2017-Mar-30 03:33N 66°01' E 012°37'0 0.0
2017-Mar-30 02:33N 66°01' E 012°37'0 0.0
2017-Mar-30 01:32N 66°01' E 012°37'0 0.0
2017-Mar-30 00:32N 66°01' E 012°37'0 0.0
2017-Mar-29 23:31N 66°01' E 012°37'0 0.0
2017-Mar-29 21:18N 66°01' E 012°37'0 0.0
2017-Mar-29 20:32N 66°01' E 012°37'0 0.0
2017-Mar-29 19:32N 66°01' E 012°37'0 0.0
2017-Mar-29 18:31N 66°01' E 012°37'0 0.0
2017-Mar-29 17:34N 66°01' E 012°37'0 0.0
2017-Mar-29 16:33N 66°01' E 012°37'0 0.0
2017-Mar-29 15:32N 66°01' E 012°37'0 0.0
2017-Mar-29 14:32N 66°01' E 012°37'0 0.0
2017-Mar-29 13:31N 66°01' E 012°37'0 0.0
2017-Mar-29 12:33N 66°01' E 012°37'0 0.0
2017-Mar-29 11:33N 66°01' E 012°37'0 0.0
2017-Mar-29 10:32N 66°01' E 012°37'0 0.0
2017-Mar-29 09:29N 66°01' E 012°37'0 0.0
2017-Mar-29 08:31N 66°01' E 012°37'0 0.0
2017-Mar-29 07:31N 66°01' E 012°37'0 0.0
2017-Mar-29 06:33N 66°01' E 012°37'0 0.0
2017-Mar-29 05:32N 66°01' E 012°37'0 0.0
2017-Mar-29 04:32N 66°01' E 012°37'0 0.0
2017-Mar-29 03:31N 66°01' E 012°37'0 0.0
2017-Mar-29 02:30N 66°01' E 012°37'0 0.0
2017-Mar-29 01:33N 66°01' E 012°37'0 0.0
2017-Mar-29 00:32N 66°01' E 012°37'0 0.0
2017-Mar-28 23:32N 66°01' E 012°37'0 0.0
2017-Mar-28 22:31N 66°01' E 012°37'0 0.0
2017-Mar-28 21:31N 66°01' E 012°37'0 0.0
2017-Mar-28 20:33N 66°01' E 012°37'0 0.0
2017-Mar-28 19:32N 66°01' E 012°37'0 0.0
2017-Mar-28 18:32N 66°01' E 012°37'0 0.0
2017-Mar-28 17:31N 66°01' E 012°37'0 0.0
2017-Mar-28 16:31N 66°01' E 012°37'3 3.4
2017-Mar-28 15:34N 66°04' E 012°40'1110.5
2017-Mar-28 14:33N 66°14' E 012°53'1010.5
2017-Mar-28 13:33N 66°24' E 012°58'9 9.4
2017-Mar-28 12:33N 66°33' E 013°02'10 9.9
2017-Mar-28 11:33N 66°42' E 013°10'10 9.8
2017-Mar-28 10:33N 66°51' E 013°20'8 8.4
2017-Mar-28 09:34N 66°58' E 013°33'10 9.8
2017-Mar-28 08:33N 67°04' E 013°53'10 9.8
2017-Mar-28 07:33N 67°12' E 014°08'8 7.4
2017-Mar-28 06:31N 67°17' E 014°22'0 0.0
2017-Mar-28 05:31N 67°17' E 014°22'0 0.0
2017-Mar-28 04:33N 67°17' E 014°22'0 0.0
2017-Mar-28 03:33N 67°17' E 014°22'0 0.0
2017-Mar-28 02:32N 67°17' E 014°22'0 0.0
2017-Mar-28 01:31N 67°17' E 014°22'0 0.0
2017-Mar-28 00:31N 67°17' E 014°22'0 0.0
2017-Mar-27 23:33N 67°17' E 014°22'0 0.0
2017-Mar-27 22:32N 67°17' E 014°22'0 0.0
2017-Mar-27 21:32N 67°17' E 014°22'0 0.0
2017-Mar-27 20:32N 67°17' E 014°22'0 0.0
2017-Mar-27 19:31N 67°17' E 014°22'0 0.0
2017-Mar-27 18:31N 67°17' E 014°22'0 0.0
2017-Mar-27 17:33N 67°17' E 014°22'0 0.0
2017-Mar-27 16:33N 67°17' E 014°22'0 0.0
2017-Mar-27 15:32N 67°17' E 014°22'0 0.0
2017-Mar-27 14:31N 67°17' E 014°22'0 0.0
2017-Mar-27 13:34N 67°17' E 014°22'0 0.0
2017-Mar-27 12:33N 67°17' E 014°22'0 0.0
2017-Mar-27 11:33N 67°17' E 014°22'0 0.0
2017-Mar-27 10:32N 67°17' E 014°22'0 0.0
2017-Mar-27 09:31N 67°17' E 014°22'0 0.0
2017-Mar-27 08:31N 67°17' E 014°22'0 0.0
2017-Mar-27 07:33N 67°17' E 014°22'0 0.0
2017-Mar-27 06:33N 67°17' E 014°22'0 0.0
2017-Mar-27 05:32N 67°17' E 014°22'0 0.0
2017-Mar-27 04:31N 67°17' E 014°22'0 0.0
2017-Mar-27 03:31N 67°17' E 014°22'0 0.0
2017-Mar-27 02:33N 67°17' E 014°22'0 0.0
2017-Mar-27 01:33N 67°17' E 014°22'0 0.0
2017-Mar-27 00:32N 67°17' E 014°22'0 0.0
2017-Mar-26 23:31N 67°17' E 014°22'0 0.0
2017-Mar-26 22:31N 67°17' E 014°22'0 0.0
2017-Mar-26 21:33N 67°17' E 014°22'0 0.0
2017-Mar-26 20:33N 67°17' E 014°22'0 0.0
2017-Mar-26 19:32N 67°17' E 014°22'0 0.0
2017-Mar-26 18:31N 67°17' E 014°22'0 0.0
2017-Mar-26 17:31N 67°17' E 014°22'0 0.0
2017-Mar-26 16:33N 67°17' E 014°22'0 0.0
2017-Mar-26 15:33N 67°17' E 014°22'0 0.0
2017-Mar-26 14:32N 67°17' E 014°22'0 0.0
2017-Mar-26 13:32N 67°17' E 014°22'0 0.0
2017-Mar-26 12:31N 67°17' E 014°22'0 0.0
2017-Mar-26 11:33N 67°17' E 014°22'0 0.0
2017-Mar-26 10:33N 67°17' E 014°22'0 0.0
2017-Mar-26 09:32N 67°17' E 014°22'0 0.0
2017-Mar-26 08:32N 67°17' E 014°22'0 0.0
2017-Mar-26 07:31N 67°17' E 014°22'0 0.0
2017-Mar-26 06:33N 67°17' E 014°22'0 0.0
2017-Mar-26 05:33N 67°17' E 014°22'0 0.0
2017-Mar-26 04:32N 67°17' E 014°22'0 0.0
2017-Mar-26 03:32N 67°17' E 014°22'0 0.0
2017-Mar-26 02:31N 67°17' E 014°22'0 0.0
2017-Mar-26 01:33N 67°17' E 014°22'0 0.0
2017-Mar-26 00:33N 67°17' E 014°22'0 0.0
2017-Mar-25 23:32N 67°17' E 014°22'0 0.0
2017-Mar-25 22:32N 67°17' E 014°22'0 0.0
2017-Mar-25 21:31N 67°17' E 014°22'0 0.0
2017-Mar-25 20:33N 67°17' E 014°22'0 0.0
2017-Mar-25 19:33N 67°17' E 014°22'0 0.0
2017-Mar-25 18:32N 67°17' E 014°22'0 0.0
2017-Mar-25 17:32N 67°17' E 014°22'0 0.0
2017-Mar-25 16:31N 67°17' E 014°22'0 0.0
2017-Mar-25 15:33N 67°17' E 014°22'0 0.0
2017-Mar-25 14:33N 67°17' E 014°22'0 0.0
2017-Mar-25 13:32N 67°17' E 014°22'0 0.0
2017-Mar-25 12:32N 67°17' E 014°22'0 0.0
2017-Mar-25 11:31N 67°17' E 014°22'0 0.0
2017-Mar-25 10:33N 67°17' E 014°22'0 0.0
2017-Mar-25 09:33N 67°17' E 014°22'0 0.0
2017-Mar-25 08:32N 67°17' E 014°22'0 0.0
2017-Mar-25 07:32N 67°17' E 014°22'0 0.0
2017-Mar-25 06:31N 67°17' E 014°22'0 0.0
2017-Mar-25 05:34N 67°17' E 014°22'0 0.0
2017-Mar-25 04:33N 67°17' E 014°22'0 0.0
2017-Mar-25 03:29N 67°17' E 014°22'0 0.0
2017-Mar-25 02:32N 67°17' E 014°22'0 0.0
2017-Mar-25 01:31N 67°17' E 014°22'0 0.0
2017-Mar-25 00:31N 67°17' E 014°22'0 0.0
2017-Mar-24 23:33N 67°17' E 014°22'0 0.0
2017-Mar-24 22:32N 67°17' E 014°22'0 0.0
2017-Mar-24 21:32N 67°17' E 014°22'0 0.0
2017-Mar-24 20:31N 67°17' E 014°22'0 0.0
2017-Mar-24 19:31N 67°17' E 014°22'0 0.0
2017-Mar-24 18:33N 67°17' E 014°22'0 0.0
2017-Mar-24 17:32N 67°17' E 014°22'0 0.0
2017-Mar-24 16:32N 67°17' E 014°22'0 0.0
2017-Mar-24 15:31N 67°17' E 014°22'0 0.0
2017-Mar-24 14:31N 67°17' E 014°22'0 0.0
2017-Mar-24 13:33N 67°17' E 014°22'0 0.0
2017-Mar-24 12:32N 67°17' E 014°22'0 0.0
2017-Mar-24 11:32N 67°17' E 014°22'0 0.0
2017-Mar-24 10:31N 67°17' E 014°22'0 0.0
2017-Mar-24 09:31N 67°17' E 014°22'0 0.0
2017-Mar-24 08:33N 67°17' E 014°22'0 0.0
2017-Mar-24 07:32N 67°17' E 014°22'0 0.0
2017-Mar-24 06:32N 67°17' E 014°22'0 0.0
2017-Mar-24 05:31N 67°17' E 014°22'0 0.0
2017-Mar-24 04:31N 67°17' E 014°22'0 0.0
2017-Mar-24 03:33N 67°17' E 014°22'0 0.0
2017-Mar-24 02:32N 67°17' E 014°22'0 0.0
2017-Mar-24 01:32N 67°17' E 014°22'0 0.0
2017-Mar-24 00:31N 67°17' E 014°22'0 0.0
2017-Mar-23 23:31N 67°17' E 014°22'0 0.0
2017-Mar-23 22:33N 67°17' E 014°22'0 0.0
2017-Mar-23 21:32N 67°17' E 014°22'0 0.0
2017-Mar-23 20:32N 67°17' E 014°22'0 0.0
2017-Mar-23 19:31N 67°17' E 014°22'0 0.0
2017-Mar-23 18:31N 67°17' E 014°22'0 0.0
2017-Mar-23 17:33N 67°17' E 014°22'0 0.0
2017-Mar-23 16:33N 67°17' E 014°22'0 0.0
2017-Mar-23 15:32N 67°17' E 014°22'0 0.0
2017-Mar-23 14:31N 67°17' E 014°22'0 0.0
2017-Mar-23 13:31N 67°17' E 014°22'0 0.0
2017-Mar-23 12:33N 67°17' E 014°22'0 0.0
2017-Mar-23 11:33N 67°17' E 014°22'0 0.0
2017-Mar-23 10:32N 67°17' E 014°22'0 0.0
2017-Mar-23 09:31N 67°17' E 014°22'0 0.0
2017-Mar-23 08:31N 67°17' E 014°22'0 0.0
2017-Mar-23 07:33N 67°17' E 014°22'0 0.0
2017-Mar-23 06:33N 67°17' E 014°22'0 0.0
2017-Mar-23 05:32N 67°17' E 014°22'0 0.0
2017-Mar-23 04:31N 67°17' E 014°22'0 0.0
2017-Mar-23 03:31N 67°17' E 014°22'0 0.0
2017-Mar-23 02:33N 67°17' E 014°22'0 0.0
2017-Mar-23 01:33N 67°17' E 014°22'0 0.0
2017-Mar-23 00:32N 67°17' E 014°22'0 0.0
2017-Mar-22 23:31N 67°17' E 014°22'0 0.0
2017-Mar-22 22:31N 67°17' E 014°22'0 0.0
2017-Mar-22 21:33N 67°17' E 014°22'0 0.0
2017-Mar-22 20:33N 67°17' E 014°22'0 0.0
2017-Mar-22 19:32N 67°17' E 014°22'0 0.0
2017-Mar-22 18:31N 67°17' E 014°22'0 0.0
2017-Mar-22 17:31N 67°17' E 014°22'0 0.0
2017-Mar-22 16:33N 67°17' E 014°22'0 0.0
2017-Mar-22 15:33N 67°17' E 014°22'0 0.0
2017-Mar-22 14:32N 67°17' E 014°22'0 0.0
2017-Mar-22 13:32N 67°17' E 014°22'0 0.0
2017-Mar-22 12:31N 67°17' E 014°22'0 0.0
2017-Mar-22 11:33N 67°17' E 014°22'0 0.0
2017-Mar-22 10:33N 67°17' E 014°22'0 0.0
2017-Mar-22 09:32N 67°17' E 014°22'0 0.0
2017-Mar-22 08:32N 67°17' E 014°22'0 0.0
2017-Mar-22 07:31N 67°17' E 014°22'0 0.0
2017-Mar-22 06:33N 67°17' E 014°22'0 0.0
2017-Mar-22 05:33N 67°17' E 014°22'0 0.0
2017-Mar-22 04:32N 67°17' E 014°22'0 0.0
2017-Mar-22 03:32N 67°17' E 014°22'0 0.0
2017-Mar-22 02:31N 67°17' E 014°22'0 0.0
2017-Mar-22 01:33N 67°17' E 014°22'0 0.0
2017-Mar-22 00:33N 67°17' E 014°22'0 0.0
2017-Mar-21 23:32N 67°17' E 014°22'0 0.0
2017-Mar-21 22:32N 67°17' E 014°22'0 0.0
2017-Mar-21 21:31N 67°17' E 014°22'0 0.0
2017-Mar-21 20:33N 67°17' E 014°22'0 0.0
2017-Mar-21 19:33N 67°17' E 014°22'0 0.0
2017-Mar-21 18:32N 67°17' E 014°22'0 0.0
2017-Mar-21 17:32N 67°17' E 014°22'0 0.0
2017-Mar-21 16:31N 67°17' E 014°22'0 0.0
2017-Mar-21 15:33N 67°17' E 014°22'0 0.0
2017-Mar-21 14:33N 67°17' E 014°22'0 0.0
2017-Mar-21 13:32N 67°17' E 014°22'0 0.0
2017-Mar-21 12:32N 67°17' E 014°22'0 0.0
2017-Mar-21 11:31N 67°17' E 014°22'0 0.0
2017-Mar-21 10:34N 67°17' E 014°22'0 0.0
2017-Mar-21 09:33N 67°17' E 014°22'0 0.0
2017-Mar-21 08:32N 67°17' E 014°22'0 0.0
2017-Mar-21 07:32N 67°17' E 014°22'0 0.0
2017-Mar-21 06:31N 67°17' E 014°22'0 0.0
2017-Mar-21 05:33N 67°17' E 014°22'0 0.0
2017-Mar-21 04:33N 67°17' E 014°22'0 0.0
2017-Mar-21 03:32N 67°17' E 014°22'0 0.0
2017-Mar-21 02:32N 67°17' E 014°22'0 0.0
2017-Mar-21 01:31N 67°17' E 014°22'0 0.0
2017-Mar-21 00:31N 67°17' E 014°22'  
Track history (hours):
 
Tides and Currents Weather Stations Pressure Air Temp Water Temp Dewpoint Dewpoint Depression Visibility Wind Speed Wind Dir Waves Ship Positions

Gamle Salten

Last reported at 2017-Mar-30 23:33 UTC. Time now 2017-Mar-31 00:24 UTC.
Position N 66°01' E 012°37'.

Length 48 m; draft 5 m.

Type: Passenger vessel. MMSI: 258178000.

Date/timePositionNaut miles runAvg speedWind from/ knotsBaromVisibWave heightAir tempDewpointWater temp
2017-Mar-30 23:33N 66°01' E 012°37'0 0.0
2017-Mar-30 22:33N 66°01' E 012°37'0 0.0
2017-Mar-30 21:32N 66°01' E 012°37'0 0.0
2017-Mar-30 20:32N 66°01' E 012°37'0 0.0
2017-Mar-30 19:31N 66°01' E 012°37'0 0.0
2017-Mar-30 18:33N 66°01' E 012°37'0 0.0
2017-Mar-30 17:33N 66°01' E 012°37'0 0.0
2017-Mar-30 16:32N 66°01' E 012°37'0 0.0
2017-Mar-30 15:32N 66°01' E 012°37'0 0.0
2017-Mar-30 14:31N 66°01' E 012°37'0 0.0
2017-Mar-30 13:33N 66°01' E 012°37'0 0.0
2017-Mar-30 12:33N 66°01' E 012°37'0 0.0
2017-Mar-30 11:32N 66°01' E 012°37'0 0.0
2017-Mar-30 10:33N 66°01' E 012°37'0 0.0
2017-Mar-30 09:31N 66°01' E 012°37'0 0.0
2017-Mar-30 08:33N 66°01' E 012°37'0 0.0
2017-Mar-30 07:33N 66°01' E 012°37'0 0.0
2017-Mar-30 06:32N 66°01' E 012°37'0 0.0
2017-Mar-30 05:32N 66°01' E 012°37'0 0.0
2017-Mar-30 04:31N 66°01' E 012°37'0 0.0
2017-Mar-30 03:33N 66°01' E 012°37'0 0.0
2017-Mar-30 02:33N 66°01' E 012°37'0 0.0
2017-Mar-30 01:32N 66°01' E 012°37'0 0.0
2017-Mar-30 00:32N 66°01' E 012°37'0 0.0
2017-Mar-29 23:31N 66°01' E 012°37'0 0.0
2017-Mar-29 21:18N 66°01' E 012°37'0 0.0
2017-Mar-29 20:32N 66°01' E 012°37'0 0.0
2017-Mar-29 19:32N 66°01' E 012°37'0 0.0
2017-Mar-29 18:31N 66°01' E 012°37'0 0.0
2017-Mar-29 17:34N 66°01' E 012°37'0 0.0
2017-Mar-29 16:33N 66°01' E 012°37'0 0.0
2017-Mar-29 15:32N 66°01' E 012°37'0 0.0
2017-Mar-29 14:32N 66°01' E 012°37'0 0.0
2017-Mar-29 13:31N 66°01' E 012°37'0 0.0
2017-Mar-29 12:33N 66°01' E 012°37'0 0.0
2017-Mar-29 11:33N 66°01' E 012°37'0 0.0
2017-Mar-29 10:32N 66°01' E 012°37'0 0.0
2017-Mar-29 09:29N 66°01' E 012°37'0 0.0
2017-Mar-29 08:31N 66°01' E 012°37'0 0.0
2017-Mar-29 07:31N 66°01' E 012°37'0 0.0
2017-Mar-29 06:33N 66°01' E 012°37'0 0.0
2017-Mar-29 05:32N 66°01' E 012°37'0 0.0
2017-Mar-29 04:32N 66°01' E 012°37'0 0.0
2017-Mar-29 03:31N 66°01' E 012°37'0 0.0
2017-Mar-29 02:30N 66°01' E 012°37'0 0.0
2017-Mar-29 01:33N 66°01' E 012°37'0 0.0
2017-Mar-29 00:32N 66°01' E 012°37'0 0.0
2017-Mar-28 23:32N 66°01' E 012°37'0 0.0
2017-Mar-28 22:31N 66°01' E 012°37'0 0.0
2017-Mar-28 21:31N 66°01' E 012°37'0 0.0
2017-Mar-28 20:33N 66°01' E 012°37'0 0.0
2017-Mar-28 19:32N 66°01' E 012°37'0 0.0
2017-Mar-28 18:32N 66°01' E 012°37'0 0.0
2017-Mar-28 17:31N 66°01' E 012°37'0 0.0
2017-Mar-28 16:31N 66°01' E 012°37'3 3.4
2017-Mar-28 15:34N 66°04' E 012°40'1110.5
2017-Mar-28 14:33N 66°14' E 012°53'1010.5
2017-Mar-28 13:33N 66°24' E 012°58'9 9.4
2017-Mar-28 12:33N 66°33' E 013°02'10 9.9
2017-Mar-28 11:33N 66°42' E 013°10'10 9.8
2017-Mar-28 10:33N 66°51' E 013°20'8 8.4
2017-Mar-28 09:34N 66°58' E 013°33'10 9.8
2017-Mar-28 08:33N 67°04' E 013°53'10 9.8
2017-Mar-28 07:33N 67°12' E 014°08'8 7.4
2017-Mar-28 06:31N 67°17' E 014°22'0 0.0
2017-Mar-28 05:31N 67°17' E 014°22'0 0.0
2017-Mar-28 04:33N 67°17' E 014°22'0 0.0
2017-Mar-28 03:33N 67°17' E 014°22'0 0.0
2017-Mar-28 02:32N 67°17' E 014°22'0 0.0
2017-Mar-28 01:31N 67°17' E 014°22'0 0.0
2017-Mar-28 00:31N 67°17' E 014°22'0 0.0
2017-Mar-27 23:33N 67°17' E 014°22'0 0.0
2017-Mar-27 22:32N 67°17' E 014°22'0 0.0
2017-Mar-27 21:32N 67°17' E 014°22'0 0.0
2017-Mar-27 20:32N 67°17' E 014°22'0 0.0
2017-Mar-27 19:31N 67°17' E 014°22'0 0.0
2017-Mar-27 18:31N 67°17' E 014°22'0 0.0
2017-Mar-27 17:33N 67°17' E 014°22'0 0.0
2017-Mar-27 16:33N 67°17' E 014°22'0 0.0
2017-Mar-27 15:32N 67°17' E 014°22'0 0.0
2017-Mar-27 14:31N 67°17' E 014°22'0 0.0
2017-Mar-27 13:34N 67°17' E 014°22'0 0.0
2017-Mar-27 12:33N 67°17' E 014°22'0 0.0
2017-Mar-27 11:33N 67°17' E 014°22'0 0.0
2017-Mar-27 10:32N 67°17' E 014°22'0 0.0
2017-Mar-27 09:31N 67°17' E 014°22'0 0.0
2017-Mar-27 08:31N 67°17' E 014°22'0 0.0
2017-Mar-27 07:33N 67°17' E 014°22'0 0.0
2017-Mar-27 06:33N 67°17' E 014°22'0 0.0
2017-Mar-27 05:32N 67°17' E 014°22'0 0.0
2017-Mar-27 04:31N 67°17' E 014°22'0 0.0
2017-Mar-27 03:31N 67°17' E 014°22'0 0.0
2017-Mar-27 02:33N 67°17' E 014°22'0 0.0
2017-Mar-27 01:33N 67°17' E 014°22'0 0.0
2017-Mar-27 00:32N 67°17' E 014°22'0 0.0
2017-Mar-26 23:31N 67°17' E 014°22'0 0.0
2017-Mar-26 22:31N 67°17' E 014°22'0 0.0
2017-Mar-26 21:33N 67°17' E 014°22'0 0.0
2017-Mar-26 20:33N 67°17' E 014°22'0 0.0
2017-Mar-26 19:32N 67°17' E 014°22'0 0.0
2017-Mar-26 18:31N 67°17' E 014°22'0 0.0
2017-Mar-26 17:31N 67°17' E 014°22'0 0.0
2017-Mar-26 16:33N 67°17' E 014°22'0 0.0
2017-Mar-26 15:33N 67°17' E 014°22'0 0.0
2017-Mar-26 14:32N 67°17' E 014°22'0 0.0
2017-Mar-26 13:32N 67°17' E 014°22'0 0.0
2017-Mar-26 12:31N 67°17' E 014°22'0 0.0
2017-Mar-26 11:33N 67°17' E 014°22'0 0.0
2017-Mar-26 10:33N 67°17' E 014°22'0 0.0
2017-Mar-26 09:32N 67°17' E 014°22'0 0.0
2017-Mar-26 08:32N 67°17' E 014°22'0 0.0
2017-Mar-26 07:31N 67°17' E 014°22'0 0.0
2017-Mar-26 06:33N 67°17' E 014°22'0 0.0
2017-Mar-26 05:33N 67°17' E 014°22'0 0.0
2017-Mar-26 04:32N 67°17' E 014°22'0 0.0
2017-Mar-26 03:32N 67°17' E 014°22'0 0.0
2017-Mar-26 02:31N 67°17' E 014°22'0 0.0
2017-Mar-26 01:33N 67°17' E 014°22'0 0.0
2017-Mar-26 00:33N 67°17' E 014°22'0 0.0
2017-Mar-25 23:32N 67°17' E 014°22'0 0.0
2017-Mar-25 22:32N 67°17' E 014°22'0 0.0
2017-Mar-25 21:31N 67°17' E 014°22'0 0.0
2017-Mar-25 20:33N 67°17' E 014°22'0 0.0
2017-Mar-25 19:33N 67°17' E 014°22'0 0.0
2017-Mar-25 18:32N 67°17' E 014°22'0 0.0
2017-Mar-25 17:32N 67°17' E 014°22'0 0.0
2017-Mar-25 16:31N 67°17' E 014°22'0 0.0
2017-Mar-25 15:33N 67°17' E 014°22'0 0.0
2017-Mar-25 14:33N 67°17' E 014°22'0 0.0
2017-Mar-25 13:32N 67°17' E 014°22'0 0.0
2017-Mar-25 12:32N 67°17' E 014°22'0 0.0
2017-Mar-25 11:31N 67°17' E 014°22'0 0.0
2017-Mar-25 10:33N 67°17' E 014°22'0 0.0
2017-Mar-25 09:33N 67°17' E 014°22'0 0.0
2017-Mar-25 08:32N 67°17' E 014°22'0 0.0
2017-Mar-25 07:32N 67°17' E 014°22'0 0.0
2017-Mar-25 06:31N 67°17' E 014°22'0 0.0
2017-Mar-25 05:34N 67°17' E 014°22'0 0.0
2017-Mar-25 04:33N 67°17' E 014°22'0 0.0
2017-Mar-25 03:29N 67°17' E 014°22'0 0.0
2017-Mar-25 02:32N 67°17' E 014°22'0 0.0
2017-Mar-25 01:31N 67°17' E 014°22'0 0.0
2017-Mar-25 00:31N 67°17' E 014°22'0 0.0
2017-Mar-24 23:33N 67°17' E 014°22'0 0.0
2017-Mar-24 22:32N 67°17' E 014°22'0 0.0
2017-Mar-24 21:32N 67°17' E 014°22'0 0.0
2017-Mar-24 20:31N 67°17' E 014°22'0 0.0
2017-Mar-24 19:31N 67°17' E 014°22'0 0.0
2017-Mar-24 18:33N 67°17' E 014°22'0 0.0
2017-Mar-24 17:32N 67°17' E 014°22'0 0.0
2017-Mar-24 16:32N 67°17' E 014°22'0 0.0
2017-Mar-24 15:31N 67°17' E 014°22'0 0.0
2017-Mar-24 14:31N 67°17' E 014°22'0 0.0
2017-Mar-24 13:33N 67°17' E 014°22'0 0.0
2017-Mar-24 12:32N 67°17' E 014°22'0 0.0
2017-Mar-24 11:32N 67°17' E 014°22'0 0.0
2017-Mar-24 10:31N 67°17' E 014°22'0 0.0
2017-Mar-24 09:31N 67°17' E 014°22'0 0.0
2017-Mar-24 08:33N 67°17' E 014°22'0 0.0
2017-Mar-24 07:32N 67°17' E 014°22'0 0.0
2017-Mar-24 06:32N 67°17' E 014°22'0 0.0
2017-Mar-24 05:31N 67°17' E 014°22'0 0.0
2017-Mar-24 04:31N 67°17' E 014°22'0 0.0
2017-Mar-24 03:33N 67°17' E 014°22'0 0.0
2017-Mar-24 02:32N 67°17' E 014°22'0 0.0
2017-Mar-24 01:32N 67°17' E 014°22'0 0.0
2017-Mar-24 00:31N 67°17' E 014°22'0 0.0
2017-Mar-23 23:31N 67°17' E 014°22'0 0.0
2017-Mar-23 22:33N 67°17' E 014°22'0 0.0
2017-Mar-23 21:32N 67°17' E 014°22'0 0.0
2017-Mar-23 20:32N 67°17' E 014°22'0 0.0
2017-Mar-23 19:31N 67°17' E 014°22'0 0.0
2017-Mar-23 18:31N 67°17' E 014°22'0 0.0
2017-Mar-23 17:33N 67°17' E 014°22'0 0.0
2017-Mar-23 16:33N 67°17' E 014°22'0 0.0
2017-Mar-23 15:32N 67°17' E 014°22'0 0.0
2017-Mar-23 14:31N 67°17' E 014°22'0 0.0
2017-Mar-23 13:31N 67°17' E 014°22'0 0.0
2017-Mar-23 12:33N 67°17' E 014°22'0 0.0
2017-Mar-23 11:33N 67°17' E 014°22'0 0.0
2017-Mar-23 10:32N 67°17' E 014°22'0 0.0
2017-Mar-23 09:31N 67°17' E 014°22'0 0.0
2017-Mar-23 08:31N 67°17' E 014°22'0 0.0
2017-Mar-23 07:33N 67°17' E 014°22'0 0.0
2017-Mar-23 06:33N 67°17' E 014°22'0 0.0
2017-Mar-23 05:32N 67°17' E 014°22'0 0.0
2017-Mar-23 04:31N 67°17' E 014°22'0 0.0
2017-Mar-23 03:31N 67°17' E 014°22'0 0.0
2017-Mar-23 02:33N 67°17' E 014°22'0 0.0
2017-Mar-23 01:33N 67°17' E 014°22'0 0.0
2017-Mar-23 00:32N 67°17' E 014°22'0 0.0
2017-Mar-22 23:31N 67°17' E 014°22'0 0.0
2017-Mar-22 22:31N 67°17' E 014°22'0 0.0
2017-Mar-22 21:33N 67°17' E 014°22'0 0.0
2017-Mar-22 20:33N 67°17' E 014°22'0 0.0
2017-Mar-22 19:32N 67°17' E 014°22'0 0.0
2017-Mar-22 18:31N 67°17' E 014°22'0 0.0
2017-Mar-22 17:31N 67°17' E 014°22'0 0.0
2017-Mar-22 16:33N 67°17' E 014°22'0 0.0
2017-Mar-22 15:33N 67°17' E 014°22'0 0.0
2017-Mar-22 14:32N 67°17' E 014°22'0 0.0
2017-Mar-22 13:32N 67°17' E 014°22'0 0.0
2017-Mar-22 12:31N 67°17' E 014°22'0 0.0
2017-Mar-22 11:33N 67°17' E 014°22'0 0.0
2017-Mar-22 10:33N 67°17' E 014°22'0 0.0
2017-Mar-22 09:32N 67°17' E 014°22'0 0.0
2017-Mar-22 08:32N 67°17' E 014°22'0 0.0
2017-Mar-22 07:31N 67°17' E 014°22'0 0.0
2017-Mar-22 06:33N 67°17' E 014°22'0 0.0
2017-Mar-22 05:33N 67°17' E 014°22'0 0.0
2017-Mar-22 04:32N 67°17' E 014°22'0 0.0
2017-Mar-22 03:32N 67°17' E 014°22'0 0.0
2017-Mar-22 02:31N 67°17' E 014°22'0 0.0
2017-Mar-22 01:33N 67°17' E 014°22'0 0.0
2017-Mar-22 00:33N 67°17' E 014°22'0 0.0
2017-Mar-21 23:32N 67°17' E 014°22'0 0.0
2017-Mar-21 22:32N 67°17' E 014°22'0 0.0
2017-Mar-21 21:31N 67°17' E 014°22'0 0.0
2017-Mar-21 20:33N 67°17' E 014°22'0 0.0
2017-Mar-21 19:33N 67°17' E 014°22'0 0.0
2017-Mar-21 18:32N 67°17' E 014°22'0 0.0
2017-Mar-21 17:32N 67°17' E 014°22'0 0.0
2017-Mar-21 16:31N 67°17' E 014°22'0 0.0
2017-Mar-21 15:33N 67°17' E 014°22'0 0.0
2017-Mar-21 14:33N 67°17' E 014°22'0 0.0
2017-Mar-21 13:32N 67°17' E 014°22'0 0.0
2017-Mar-21 12:32N 67°17' E 014°22'0 0.0
2017-Mar-21 11:31N 67°17' E 014°22'0 0.0
2017-Mar-21 10:34N 67°17' E 014°22'0 0.0
2017-Mar-21 09:33N 67°17' E 014°22'0 0.0
2017-Mar-21 08:32N 67°17' E 014°22'0 0.0
2017-Mar-21 07:32N 67°17' E 014°22'0 0.0
2017-Mar-21 06:31N 67°17' E 014°22'0 0.0
2017-Mar-21 05:33N 67°17' E 014°22'0 0.0
2017-Mar-21 04:33N 67°17' E 014°22'0 0.0
2017-Mar-21 03:32N 67°17' E 014°22'0 0.0
2017-Mar-21 02:32N 67°17' E 014°22'0 0.0
2017-Mar-21 01:31N 67°17' E 014°22'0 0.0
2017-Mar-21 00:31N 67°17' E 014°22'  

Dump ship's entire track history